sensor_id;sensor_type;location;lat;lon;timestamp;temperature;humidity
7502;DHT22;3792;47.740;7.606;2022-11-04T00:01:38;11.70;99.90
7502;DHT22;3792;47.740;7.606;2022-11-04T00:04:07;11.70;99.90
7502;DHT22;3792;47.740;7.606;2022-11-04T00:06:34;11.70;99.90
7502;DHT22;3792;47.740;7.606;2022-11-04T00:09:03;11.70;99.90
7502;DHT22;3792;47.740;7.606;2022-11-04T00:11:31;11.70;99.90
7502;DHT22;3792;47.740;7.606;2022-11-04T00:14:16;11.70;99.90
7502;DHT22;3792;47.740;7.606;2022-11-04T00:16:44;11.60;99.90
7502;DHT22;3792;47.740;7.606;2022-11-04T00:19:29;11.60;99.90
7502;DHT22;3792;47.740;7.606;2022-11-04T00:22:17;11.40;99.90
7502;DHT22;3792;47.740;7.606;2022-11-04T00:25:03;11.40;99.90
7502;DHT22;3792;47.740;7.606;2022-11-04T00:27:48;11.40;99.90
7502;DHT22;3792;47.740;7.606;2022-11-04T00:30:32;11.40;99.90
7502;DHT22;3792;47.740;7.606;2022-11-04T00:32:59;11.40;99.90
7502;DHT22;3792;47.740;7.606;2022-11-04T00:35:49;11.40;99.90
7502;DHT22;3792;47.740;7.606;2022-11-04T00:38:16;11.40;99.90
7502;DHT22;3792;47.740;7.606;2022-11-04T00:40:44;11.30;99.90
7502;DHT22;3792;47.740;7.606;2022-11-04T00:43:11;11.40;99.90
7502;DHT22;3792;47.740;7.606;2022-11-04T00:45:39;11.40;99.90
7502;DHT22;3792;47.740;7.606;2022-11-04T00:48:07;11.40;99.90
7502;DHT22;3792;47.740;7.606;2022-11-04T00:50:34;11.40;99.90
7502;DHT22;3792;47.740;7.606;2022-11-04T00:53:03;11.30;99.90
7502;DHT22;3792;47.740;7.606;2022-11-04T00:55:30;11.30;99.90
7502;DHT22;3792;47.740;7.606;2022-11-04T00:57:57;11.20;99.90
7502;DHT22;3792;47.740;7.606;2022-11-04T01:00:25;11.20;99.90
7502;DHT22;3792;47.740;7.606;2022-11-04T01:02:52;11.20;99.90
7502;DHT22;3792;47.740;7.606;2022-11-04T01:05:19;11.20;99.90
7502;DHT22;3792;47.740;7.606;2022-11-04T01:07:46;11.30;99.90
7502;DHT22;3792;47.740;7.606;2022-11-04T01:10:15;11.30;99.90
7502;DHT22;3792;47.740;7.606;2022-11-04T01:12:42;11.30;99.90
7502;DHT22;3792;47.740;7.606;2022-11-04T01:15:09;11.30;99.90
7502;DHT22;3792;47.740;7.606;2022-11-04T01:17:36;11.40;99.90
7502;DHT22;3792;47.740;7.606;2022-11-04T01:20:04;11.40;99.90
7502;DHT22;3792;47.740;7.606;2022-11-04T01:22:31;11.40;99.90
7502;DHT22;3792;47.740;7.606;2022-11-04T01:24:58;11.40;99.90
7502;DHT22;3792;47.740;7.606;2022-11-04T01:27:27;11.30;99.90
7502;DHT22;3792;47.740;7.606;2022-11-04T01:29:54;11.20;99.90
7502;DHT22;3792;47.740;7.606;2022-11-04T01:32:21;11.20;99.90
7502;DHT22;3792;47.740;7.606;2022-11-04T01:34:48;11.20;99.90
7502;DHT22;3792;47.740;7.606;2022-11-04T01:37:15;11.10;99.90
7502;DHT22;3792;47.740;7.606;2022-11-04T01:39:42;11.10;99.90
7502;DHT22;3792;47.740;7.606;2022-11-04T01:42:13;11.10;99.90
7502;DHT22;3792;47.740;7.606;2022-11-04T01:44:53;11.10;99.90
7502;DHT22;3792;47.740;7.606;2022-11-04T01:47:23;11.10;99.90
7502;DHT22;3792;47.740;7.606;2022-11-04T01:49:55;11.10;99.90
7502;DHT22;3792;47.740;7.606;2022-11-04T01:52:27;11.10;99.90
7502;DHT22;3792;47.740;7.606;2022-11-04T01:54:59;11.10;99.90
7502;DHT22;3792;47.740;7.606;2022-11-04T01:57:31;11.10;99.90
7502;DHT22;3792;47.740;7.606;2022-11-04T02:00:04;11.10;99.90
7502;DHT22;3792;47.740;7.606;2022-11-04T02:02:34;11.10;99.90
7502;DHT22;3792;47.740;7.606;2022-11-04T02:05:05;11.00;99.90
7502;DHT22;3792;47.740;7.606;2022-11-04T02:07:33;11.00;99.90
7502;DHT22;3792;47.740;7.606;2022-11-04T02:10:00;10.90;99.90
7502;DHT22;3792;47.740;7.606;2022-11-04T02:12:28;11.00;99.90
7502;DHT22;3792;47.740;7.606;2022-11-04T02:15:14;11.00;99.90
7502;DHT22;3792;47.740;7.606;2022-11-04T02:24:21;10.90;99.90
7502;DHT22;3792;47.740;7.606;2022-11-04T02:27:20;10.90;99.90
7502;DHT22;3792;47.740;7.606;2022-11-04T02:30:08;10.90;99.90
7502;DHT22;3792;47.740;7.606;2022-11-04T02:32:59;10.90;99.90
7502;DHT22;3792;47.740;7.606;2022-11-04T02:35:38;10.90;99.90
7502;DHT22;3792;47.740;7.606;2022-11-04T02:38:11;10.90;99.90
7502;DHT22;3792;47.740;7.606;2022-11-04T02:40:42;10.80;99.90
7502;DHT22;3792;47.740;7.606;2022-11-04T02:43:15;10.80;99.90
7502;DHT22;3792;47.740;7.606;2022-11-04T02:45:50;10.80;99.90
7502;DHT22;3792;47.740;7.606;2022-11-04T02:48:24;10.80;99.90
7502;DHT22;3792;47.740;7.606;2022-11-04T02:50:58;10.80;99.90
7502;DHT22;3792;47.740;7.606;2022-11-04T02:53:32;10.80;99.90
7502;DHT22;3792;47.740;7.606;2022-11-04T02:56:04;10.80;99.90
7502;DHT22;3792;47.740;7.606;2022-11-04T02:58:35;10.80;99.90
7502;DHT22;3792;47.740;7.606;2022-11-04T03:01:07;10.70;99.90
7502;DHT22;3792;47.740;7.606;2022-11-04T03:03:39;10.70;99.90
7502;DHT22;3792;47.740;7.606;2022-11-04T03:06:09;10.60;99.90
7502;DHT22;3792;47.740;7.606;2022-11-04T03:08:40;10.60;99.90
7502;DHT22;3792;47.740;7.606;2022-11-04T03:11:11;10.60;99.90
7502;DHT22;3792;47.740;7.606;2022-11-04T03:13:42;10.50;99.90
7502;DHT22;3792;47.740;7.606;2022-11-04T03:16:14;10.50;99.90
7502;DHT22;3792;47.740;7.606;2022-11-04T03:18:49;10.50;99.90
7502;DHT22;3792;47.740;7.606;2022-11-04T03:21:21;10.50;99.90
7502;DHT22;3792;47.740;7.606;2022-11-04T03:23:50;10.40;99.90
7502;DHT22;3792;47.740;7.606;2022-11-04T03:26:22;10.30;99.90
7502;DHT22;3792;47.740;7.606;2022-11-04T03:29:03;10.30;99.90
7502;DHT22;3792;47.740;7.606;2022-11-04T03:31:43;10.30;99.90
7502;DHT22;3792;47.740;7.606;2022-11-04T03:34:11;10.30;99.90
7502;DHT22;3792;47.740;7.606;2022-11-04T03:36:38;10.30;99.90
7502;DHT22;3792;47.740;7.606;2022-11-04T03:39:06;10.30;99.90
7502;DHT22;3792;47.740;7.606;2022-11-04T03:41:39;10.30;99.90
7502;DHT22;3792;47.740;7.606;2022-11-04T03:44:07;10.20;99.90
7502;DHT22;3792;47.740;7.606;2022-11-04T03:46:34;10.30;99.90
7502;DHT22;3792;47.740;7.606;2022-11-04T03:49:03;10.30;99.90
7502;DHT22;3792;47.740;7.606;2022-11-04T03:51:31;10.30;99.90
7502;DHT22;3792;47.740;7.606;2022-11-04T03:53:58;10.30;99.90
7502;DHT22;3792;47.740;7.606;2022-11-04T03:56:55;10.30;99.90
7502;DHT22;3792;47.740;7.606;2022-11-04T03:59:59;10.20;99.90
7502;DHT22;3792;47.740;7.606;2022-11-04T04:02:40;10.20;99.90
7502;DHT22;3792;47.740;7.606;2022-11-04T04:05:14;10.10;99.90
7502;DHT22;3792;47.740;7.606;2022-11-04T04:07:45;10.00;99.90
7502;DHT22;3792;47.740;7.606;2022-11-04T04:10:17;9.90;99.90
7502;DHT22;3792;47.740;7.606;2022-11-04T04:13:08;9.80;99.90
7502;DHT22;3792;47.740;7.606;2022-11-04T04:15:42;9.60;99.90
7502;DHT22;3792;47.740;7.606;2022-11-04T04:18:12;9.60;99.90
7502;DHT22;3792;47.740;7.606;2022-11-04T04:20:43;9.60;99.90
7502;DHT22;3792;47.740;7.606;2022-11-04T04:23:16;9.60;99.90
7502;DHT22;3792;47.740;7.606;2022-11-04T04:26:04;9.60;99.90
7502;DHT22;3792;47.740;7.606;2022-11-04T04:28:51;9.60;99.90
7502;DHT22;3792;47.740;7.606;2022-11-04T04:31:19;9.60;99.90
7502;DHT22;3792;47.740;7.606;2022-11-04T04:34:01;9.50;99.90
7502;DHT22;3792;47.740;7.606;2022-11-04T04:36:31;9.50;99.90
7502;DHT22;3792;47.740;7.606;2022-11-04T04:39:03;9.40;99.90
7502;DHT22;3792;47.740;7.606;2022-11-04T04:41:48;9.40;99.90
7502;DHT22;3792;47.740;7.606;2022-11-04T04:44:33;9.40;99.90
7502;DHT22;3792;47.740;7.606;2022-11-04T04:47:19;9.30;99.90
7502;DHT22;3792;47.740;7.606;2022-11-04T04:49:50;9.30;99.90
7502;DHT22;3792;47.740;7.606;2022-11-04T04:52:19;9.30;99.90
7502;DHT22;3792;47.740;7.606;2022-11-04T04:54:47;9.30;99.90
7502;DHT22;3792;47.740;7.606;2022-11-04T04:57:15;9.30;99.90
7502;DHT22;3792;47.740;7.606;2022-11-04T04:59:42;9.30;99.90
7502;DHT22;3792;47.740;7.606;2022-11-04T05:02:09;9.20;99.90
7502;DHT22;3792;47.740;7.606;2022-11-04T05:04:36;9.30;99.90
7502;DHT22;3792;47.740;7.606;2022-11-04T05:07:03;9.30;99.90
7502;DHT22;3792;47.740;7.606;2022-11-04T05:09:32;9.30;99.90
7502;DHT22;3792;47.740;7.606;2022-11-04T05:12:00;9.30;99.90
7502;DHT22;3792;47.740;7.606;2022-11-04T05:14:27;9.40;99.90
7502;DHT22;3792;47.740;7.606;2022-11-04T05:16:55;9.40;99.90
7502;DHT22;3792;47.740;7.606;2022-11-04T05:19:22;9.30;99.90
7502;DHT22;3792;47.740;7.606;2022-11-04T05:21:49;9.40;99.90
7502;DHT22;3792;47.740;7.606;2022-11-04T05:24:16;9.30;99.90
7502;DHT22;3792;47.740;7.606;2022-11-04T05:26:44;9.40;99.90
7502;DHT22;3792;47.740;7.606;2022-11-04T05:29:12;9.40;99.90
7502;DHT22;3792;47.740;7.606;2022-11-04T05:31:39;9.40;99.90
7502;DHT22;3792;47.740;7.606;2022-11-04T05:34:08;9.40;99.90
7502;DHT22;3792;47.740;7.606;2022-11-04T05:36:35;9.40;99.90
7502;DHT22;3792;47.740;7.606;2022-11-04T05:39:03;9.30;99.90
7502;DHT22;3792;47.740;7.606;2022-11-04T05:41:31;9.10;99.90
7502;DHT22;3792;47.740;7.606;2022-11-04T05:44:00;9.10;99.90
7502;DHT22;3792;47.740;7.606;2022-11-04T05:46:28;9.10;99.90
7502;DHT22;3792;47.740;7.606;2022-11-04T05:48:55;9.10;99.90
7502;DHT22;3792;47.740;7.606;2022-11-04T05:51:24;9.20;99.90
7502;DHT22;3792;47.740;7.606;2022-11-04T05:53:51;9.10;99.90
7502;DHT22;3792;47.740;7.606;2022-11-04T05:56:19;9.00;99.90
7502;DHT22;3792;47.740;7.606;2022-11-04T05:58:46;9.00;99.90
7502;DHT22;3792;47.740;7.606;2022-11-04T06:01:24;9.00;99.90
7502;DHT22;3792;47.740;7.606;2022-11-04T06:03:51;9.00;99.90
7502;DHT22;3792;47.740;7.606;2022-11-04T06:06:19;9.00;99.90
7502;DHT22;3792;47.740;7.606;2022-11-04T06:08:46;9.10;99.90
7502;DHT22;3792;47.740;7.606;2022-11-04T06:11:13;9.10;99.90
7502;DHT22;3792;47.740;7.606;2022-11-04T06:13:40;9.10;99.90
7502;DHT22;3792;47.740;7.606;2022-11-04T06:16:07;9.10;99.90
7502;DHT22;3792;47.740;7.606;2022-11-04T06:18:36;9.10;99.90
7502;DHT22;3792;47.740;7.606;2022-11-04T06:21:19;9.10;99.90
7502;DHT22;3792;47.740;7.606;2022-11-04T06:23:47;9.10;99.90
7502;DHT22;3792;47.740;7.606;2022-11-04T06:26:15;9.00;99.90
7502;DHT22;3792;47.740;7.606;2022-11-04T06:28:42;8.90;99.90
7502;DHT22;3792;47.740;7.606;2022-11-04T06:31:11;8.90;99.90
7502;DHT22;3792;47.740;7.606;2022-11-04T06:33:40;9.00;99.90
7502;DHT22;3792;47.740;7.606;2022-11-04T06:36:08;8.90;99.90
7502;DHT22;3792;47.740;7.606;2022-11-04T06:38:36;8.80;99.90
7502;DHT22;3792;47.740;7.606;2022-11-04T06:41:04;8.80;99.90
7502;DHT22;3792;47.740;7.606;2022-11-04T06:43:31;8.70;99.90
7502;DHT22;3792;47.740;7.606;2022-11-04T06:46:00;8.80;99.90
7502;DHT22;3792;47.740;7.606;2022-11-04T06:48:28;8.80;99.90
7502;DHT22;3792;47.740;7.606;2022-11-04T06:50:57;8.80;99.90
7502;DHT22;3792;47.740;7.606;2022-11-04T06:53:24;8.80;99.90
7502;DHT22;3792;47.740;7.606;2022-11-04T06:55:52;8.90;99.90
7502;DHT22;3792;47.740;7.606;2022-11-04T06:58:19;8.90;99.90
7502;DHT22;3792;47.740;7.606;2022-11-04T07:00:50;8.90;99.90
7502;DHT22;3792;47.740;7.606;2022-11-04T07:03:19;9.00;99.90
7502;DHT22;3792;47.740;7.606;2022-11-04T07:05:46;9.00;99.90
7502;DHT22;3792;47.740;7.606;2022-11-04T07:08:14;9.00;99.90
7502;DHT22;3792;47.740;7.606;2022-11-04T07:10:42;9.00;99.90
7502;DHT22;3792;47.740;7.606;2022-11-04T07:13:09;9.00;99.90
7502;DHT22;3792;47.740;7.606;2022-11-04T07:15:37;9.00;99.90
7502;DHT22;3792;47.740;7.606;2022-11-04T07:18:05;9.00;99.90
7502;DHT22;3792;47.740;7.606;2022-11-04T07:20:33;9.00;99.90
7502;DHT22;3792;47.740;7.606;2022-11-04T07:23:01;9.10;99.90
7502;DHT22;3792;47.740;7.606;2022-11-04T07:25:30;9.20;99.90
7502;DHT22;3792;47.740;7.606;2022-11-04T07:27:57;9.10;99.90
7502;DHT22;3792;47.740;7.606;2022-11-04T07:30:25;9.20;99.90
7502;DHT22;3792;47.740;7.606;2022-11-04T07:32:52;9.40;99.90
7502;DHT22;3792;47.740;7.606;2022-11-04T07:35:19;9.40;99.90
7502;DHT22;3792;47.740;7.606;2022-11-04T07:37:46;9.50;99.90
7502;DHT22;3792;47.740;7.606;2022-11-04T07:40:14;9.60;99.90
7502;DHT22;3792;47.740;7.606;2022-11-04T07:42:42;9.80;99.90
7502;DHT22;3792;47.740;7.606;2022-11-04T07:45:09;9.80;99.90
7502;DHT22;3792;47.740;7.606;2022-11-04T07:47:36;9.80;99.90
7502;DHT22;3792;47.740;7.606;2022-11-04T07:50:04;9.90;99.90
7502;DHT22;3792;47.740;7.606;2022-11-04T07:52:31;9.90;99.90
7502;DHT22;3792;47.740;7.606;2022-11-04T07:54:58;9.90;99.90
7502;DHT22;3792;47.740;7.606;2022-11-04T07:57:27;10.00;99.90
7502;DHT22;3792;47.740;7.606;2022-11-04T07:59:55;10.00;99.90
7502;DHT22;3792;47.740;7.606;2022-11-04T08:02:22;10.10;99.90
7502;DHT22;3792;47.740;7.606;2022-11-04T08:04:49;10.10;99.90
7502;DHT22;3792;47.740;7.606;2022-11-04T08:07:16;10.20;99.90
7502;DHT22;3792;47.740;7.606;2022-11-04T08:09:44;10.20;99.90
7502;DHT22;3792;47.740;7.606;2022-11-04T08:12:11;10.20;99.90
7502;DHT22;3792;47.740;7.606;2022-11-04T08:14:38;10.30;99.90
7502;DHT22;3792;47.740;7.606;2022-11-04T08:17:06;10.40;99.90
7502;DHT22;3792;47.740;7.606;2022-11-04T08:19:33;10.50;99.90
7502;DHT22;3792;47.740;7.606;2022-11-04T08:22:00;10.50;99.90
7502;DHT22;3792;47.740;7.606;2022-11-04T08:24:27;10.50;99.90
7502;DHT22;3792;47.740;7.606;2022-11-04T08:26:54;10.40;99.90
7502;DHT22;3792;47.740;7.606;2022-11-04T08:29:22;10.40;99.90
7502;DHT22;3792;47.740;7.606;2022-11-04T08:31:49;10.40;99.90
7502;DHT22;3792;47.740;7.606;2022-11-04T08:34:17;10.50;99.90
7502;DHT22;3792;47.740;7.606;2022-11-04T08:36:44;10.60;99.90
7502;DHT22;3792;47.740;7.606;2022-11-04T08:39:12;10.80;99.90
7502;DHT22;3792;47.740;7.606;2022-11-04T08:41:41;10.90;99.90
7502;DHT22;3792;47.740;7.606;2022-11-04T08:44:10;11.00;99.90
7502;DHT22;3792;47.740;7.606;2022-11-04T08:46:39;10.90;99.90
7502;DHT22;3792;47.740;7.606;2022-11-04T08:49:07;10.80;99.90
7502;DHT22;3792;47.740;7.606;2022-11-04T08:51:37;10.90;99.90
7502;DHT22;3792;47.740;7.606;2022-11-04T08:54:05;11.10;99.90
7502;DHT22;3792;47.740;7.606;2022-11-04T08:56:34;11.30;99.90
7502;DHT22;3792;47.740;7.606;2022-11-04T08:59:03;11.40;99.90
7502;DHT22;3792;47.740;7.606;2022-11-04T09:01:31;11.40;99.90
7502;DHT22;3792;47.740;7.606;2022-11-04T09:03:59;11.50;99.90
7502;DHT22;3792;47.740;7.606;2022-11-04T09:06:29;11.40;99.90
7502;DHT22;3792;47.740;7.606;2022-11-04T09:08:57;11.40;99.90
7502;DHT22;3792;47.740;7.606;2022-11-04T09:11:29;11.50;99.90
7502;DHT22;3792;47.740;7.606;2022-11-04T09:13:58;11.60;99.90
7502;DHT22;3792;47.740;7.606;2022-11-04T09:16:27;11.60;99.90
7502;DHT22;3792;47.740;7.606;2022-11-04T09:18:55;11.70;99.90
7502;DHT22;3792;47.740;7.606;2022-11-04T09:21:23;11.70;99.90
7502;DHT22;3792;47.740;7.606;2022-11-04T09:23:51;11.80;99.90
7502;DHT22;3792;47.740;7.606;2022-11-04T09:26:20;11.80;99.90
7502;DHT22;3792;47.740;7.606;2022-11-04T09:28:52;11.90;99.90
7502;DHT22;3792;47.740;7.606;2022-11-04T09:31:20;12.00;99.90
7502;DHT22;3792;47.740;7.606;2022-11-04T09:33:48;12.10;99.90
7502;DHT22;3792;47.740;7.606;2022-11-04T09:36:15;12.20;99.90
7502;DHT22;3792;47.740;7.606;2022-11-04T09:38:42;12.30;99.90
7502;DHT22;3792;47.740;7.606;2022-11-04T09:44:20;12.20;99.90
7502;DHT22;3792;47.740;7.606;2022-11-04T09:46:49;12.20;99.90
7502;DHT22;3792;47.740;7.606;2022-11-04T09:49:17;12.20;99.90
7502;DHT22;3792;47.740;7.606;2022-11-04T09:51:46;12.20;99.90
7502;DHT22;3792;47.740;7.606;2022-11-04T09:54:19;12.20;99.90
7502;DHT22;3792;47.740;7.606;2022-11-04T09:56:49;12.30;99.90
7502;DHT22;3792;47.740;7.606;2022-11-04T09:59:23;12.40;99.90
7502;DHT22;3792;47.740;7.606;2022-11-04T10:02:10;12.40;99.90
7502;DHT22;3792;47.740;7.606;2022-11-04T10:04:51;12.40;99.90
7502;DHT22;3792;47.740;7.606;2022-11-04T10:07:30;12.40;99.90
7502;DHT22;3792;47.740;7.606;2022-11-04T10:10:07;12.40;99.90
7502;DHT22;3792;47.740;7.606;2022-11-04T10:12:53;12.50;99.90
7502;DHT22;3792;47.740;7.606;2022-11-04T10:18:52;12.50;99.90
7502;DHT22;3792;47.740;7.606;2022-11-04T10:21:32;12.50;99.90
7502;DHT22;3792;47.740;7.606;2022-11-04T10:24:11;12.30;99.90
7502;DHT22;3792;47.740;7.606;2022-11-04T10:26:44;12.40;99.90
7502;DHT22;3792;47.740;7.606;2022-11-04T10:29:14;12.40;99.90
7502;DHT22;3792;47.740;7.606;2022-11-04T10:31:44;12.40;99.90
7502;DHT22;3792;47.740;7.606;2022-11-04T10:34:22;12.40;99.90
7502;DHT22;3792;47.740;7.606;2022-11-04T10:36:53;12.40;99.90
7502;DHT22;3792;47.740;7.606;2022-11-04T10:39:26;12.50;99.90
7502;DHT22;3792;47.740;7.606;2022-11-04T10:41:55;12.50;99.90
7502;DHT22;3792;47.740;7.606;2022-11-04T10:44:27;12.50;99.90
7502;DHT22;3792;47.740;7.606;2022-11-04T10:47:03;12.50;99.90
7502;DHT22;3792;47.740;7.606;2022-11-04T10:50:00;12.50;99.90
7502;DHT22;3792;47.740;7.606;2022-11-04T10:52:32;12.60;99.90
7502;DHT22;3792;47.740;7.606;2022-11-04T10:55:00;12.60;99.90
7502;DHT22;3792;47.740;7.606;2022-11-04T10:57:27;12.60;99.90
7502;DHT22;3792;47.740;7.606;2022-11-04T10:59:57;12.60;99.90
7502;DHT22;3792;47.740;7.606;2022-11-04T11:02:43;12.50;99.90
7502;DHT22;3792;47.740;7.606;2022-11-04T11:05:21;12.40;99.90
7502;DHT22;3792;47.740;7.606;2022-11-04T11:07:51;12.30;99.90
7502;DHT22;3792;47.740;7.606;2022-11-04T11:10:20;12.20;99.90
7502;DHT22;3792;47.740;7.606;2022-11-04T11:12:56;12.20;99.90
7502;DHT22;3792;47.740;7.606;2022-11-04T11:15:33;12.20;99.90
7502;DHT22;3792;47.740;7.606;2022-11-04T11:18:12;12.30;99.90
7502;DHT22;3792;47.740;7.606;2022-11-04T11:20:41;12.40;99.90
7502;DHT22;3792;47.740;7.606;2022-11-04T11:23:36;12.50;99.90
7502;DHT22;3792;47.740;7.606;2022-11-04T11:26:05;12.40;99.90
7502;DHT22;3792;47.740;7.606;2022-11-04T11:28:34;12.50;99.90
7502;DHT22;3792;47.740;7.606;2022-11-04T11:31:11;12.50;99.90
7502;DHT22;3792;47.740;7.606;2022-11-04T11:33:53;12.40;99.90
7502;DHT22;3792;47.740;7.606;2022-11-04T11:36:24;12.30;99.90
7502;DHT22;3792;47.740;7.606;2022-11-04T11:38:58;12.30;99.90
7502;DHT22;3792;47.740;7.606;2022-11-04T11:41:28;12.20;99.90
7502;DHT22;3792;47.740;7.606;2022-11-04T11:44:00;12.00;99.90
7502;DHT22;3792;47.740;7.606;2022-11-04T11:46:31;12.00;99.90
7502;DHT22;3792;47.740;7.606;2022-11-04T11:49:00;12.00;99.90
7502;DHT22;3792;47.740;7.606;2022-11-04T11:51:31;12.00;99.90
7502;DHT22;3792;47.740;7.606;2022-11-04T11:54:14;12.00;99.90
7502;DHT22;3792;47.740;7.606;2022-11-04T11:56:45;12.10;99.90
7502;DHT22;3792;47.740;7.606;2022-11-04T11:59:29;12.10;99.90
7502;DHT22;3792;47.740;7.606;2022-11-04T12:02:24;12.10;99.90
7502;DHT22;3792;47.740;7.606;2022-11-04T12:04:54;12.10;99.90
7502;DHT22;3792;47.740;7.606;2022-11-04T12:07:30;12.10;99.90
7502;DHT22;3792;47.740;7.606;2022-11-04T12:10:09;12.10;99.90
7502;DHT22;3792;47.740;7.606;2022-11-04T12:12:52;12.20;99.90
7502;DHT22;3792;47.740;7.606;2022-11-04T12:15:31;12.20;99.90
7502;DHT22;3792;47.740;7.606;2022-11-04T12:21:07;12.30;99.90
7502;DHT22;3792;47.740;7.606;2022-11-04T12:23:40;12.30;99.90
7502;DHT22;3792;47.740;7.606;2022-11-04T12:26:19;12.30;99.90
7502;DHT22;3792;47.740;7.606;2022-11-04T12:29:05;12.30;99.90
7502;DHT22;3792;47.740;7.606;2022-11-04T12:31:41;12.30;99.90
7502;DHT22;3792;47.740;7.606;2022-11-04T12:34:27;12.30;99.90
7502;DHT22;3792;47.740;7.606;2022-11-04T12:37:10;12.30;99.90
7502;DHT22;3792;47.740;7.606;2022-11-04T12:39:54;12.30;99.90
7502;DHT22;3792;47.740;7.606;2022-11-04T12:42:29;12.40;99.90
7502;DHT22;3792;47.740;7.606;2022-11-04T12:45:05;12.50;99.90
7502;DHT22;3792;47.740;7.606;2022-11-04T12:47:37;12.60;99.90
7502;DHT22;3792;47.740;7.606;2022-11-04T12:53:32;12.80;99.90
7502;DHT22;3792;47.740;7.606;2022-11-04T12:56:07;12.90;99.90
7502;DHT22;3792;47.740;7.606;2022-11-04T12:58:53;12.90;99.90
7502;DHT22;3792;47.740;7.606;2022-11-04T13:01:30;12.80;99.90
7502;DHT22;3792;47.740;7.606;2022-11-04T13:04:03;12.70;99.90
7502;DHT22;3792;47.740;7.606;2022-11-04T13:06:39;12.70;99.90
7502;DHT22;3792;47.740;7.606;2022-11-04T13:09:12;12.70;99.90
7502;DHT22;3792;47.740;7.606;2022-11-04T13:11:45;12.60;99.90
7502;DHT22;3792;47.740;7.606;2022-11-04T13:14:17;12.60;99.90
7502;DHT22;3792;47.740;7.606;2022-11-04T13:16:50;12.70;99.90
7502;DHT22;3792;47.740;7.606;2022-11-04T13:19:25;12.70;99.90
7502;DHT22;3792;47.740;7.606;2022-11-04T13:21:55;12.80;99.90
7502;DHT22;3792;47.740;7.606;2022-11-04T13:24:27;12.80;99.90
7502;DHT22;3792;47.740;7.606;2022-11-04T13:26:59;12.80;99.90
7502;DHT22;3792;47.740;7.606;2022-11-04T13:29:28;12.80;99.90
7502;DHT22;3792;47.740;7.606;2022-11-04T13:32:00;12.90;99.90
7502;DHT22;3792;47.740;7.606;2022-11-04T13:34:37;13.40;99.90
7502;DHT22;3792;47.740;7.606;2022-11-04T13:37:15;13.90;99.90
7502;DHT22;3792;47.740;7.606;2022-11-04T13:39:46;13.90;99.90
7502;DHT22;3792;47.740;7.606;2022-11-04T13:45:17;13.40;99.90
7502;DHT22;3792;47.740;7.606;2022-11-04T13:47:50;13.20;99.90
7502;DHT22;3792;47.740;7.606;2022-11-04T13:50:32;13.00;99.90
7502;DHT22;3792;47.740;7.606;2022-11-04T13:53:02;12.80;99.90
7502;DHT22;3792;47.740;7.606;2022-11-04T13:55:30;12.70;99.90
7502;DHT22;3792;47.740;7.606;2022-11-04T13:57:59;12.60;99.90
7502;DHT22;3792;47.740;7.606;2022-11-04T14:00:28;12.60;99.90
7502;DHT22;3792;47.740;7.606;2022-11-04T14:02:56;12.50;99.90
7502;DHT22;3792;47.740;7.606;2022-11-04T14:06:02;12.50;99.90
7502;DHT22;3792;47.740;7.606;2022-11-04T14:08:31;12.40;99.90
7502;DHT22;3792;47.740;7.606;2022-11-04T14:11:08;12.30;99.90
7502;DHT22;3792;47.740;7.606;2022-11-04T14:14:02;12.20;99.90
7502;DHT22;3792;47.740;7.606;2022-11-04T14:16:40;12.20;99.90
7502;DHT22;3792;47.740;7.606;2022-11-04T14:22:14;12.10;99.90
7502;DHT22;3792;47.740;7.606;2022-11-04T14:24:43;12.40;99.90
7502;DHT22;3792;47.740;7.606;2022-11-04T14:27:23;12.50;99.90
7502;DHT22;3792;47.740;7.606;2022-11-04T14:29:52;12.60;99.90
7502;DHT22;3792;47.740;7.606;2022-11-04T14:32:24;12.60;99.90
7502;DHT22;3792;47.740;7.606;2022-11-04T14:35:00;12.40;99.90
7502;DHT22;3792;47.740;7.606;2022-11-04T14:37:32;12.10;99.90
7502;DHT22;3792;47.740;7.606;2022-11-04T14:40:05;11.80;99.90
7502;DHT22;3792;47.740;7.606;2022-11-04T14:42:48;11.50;99.90
7502;DHT22;3792;47.740;7.606;2022-11-04T14:45:19;11.40;99.90
7502;DHT22;3792;47.740;7.606;2022-11-04T14:47:52;11.30;99.90
7502;DHT22;3792;47.740;7.606;2022-11-04T14:50:24;11.20;99.90
7502;DHT22;3792;47.740;7.606;2022-11-04T14:52:55;11.00;99.90
7502;DHT22;3792;47.740;7.606;2022-11-04T14:55:27;11.00;99.90
7502;DHT22;3792;47.740;7.606;2022-11-04T14:57:56;10.90;99.90
7502;DHT22;3792;47.740;7.606;2022-11-04T15:00:28;10.90;99.90
7502;DHT22;3792;47.740;7.606;2022-11-04T15:03:05;10.90;99.90
7502;DHT22;3792;47.740;7.606;2022-11-04T15:05:33;10.80;99.90
7502;DHT22;3792;47.740;7.606;2022-11-04T15:10:48;10.70;99.90
7502;DHT22;3792;47.740;7.606;2022-11-04T15:13:18;10.70;99.90
7502;DHT22;3792;47.740;7.606;2022-11-04T15:15:46;10.80;99.90
7502;DHT22;3792;47.740;7.606;2022-11-04T15:18:18;11.00;99.90
7502;DHT22;3792;47.740;7.606;2022-11-04T15:20:47;11.30;99.90
7502;DHT22;3792;47.740;7.606;2022-11-04T15:23:21;11.70;99.90
7502;DHT22;3792;47.740;7.606;2022-11-04T15:25:53;11.80;99.90
7502;DHT22;3792;47.740;7.606;2022-11-04T15:28:22;11.70;99.90
7502;DHT22;3792;47.740;7.606;2022-11-04T15:30:58;11.60;99.90
7502;DHT22;3792;47.740;7.606;2022-11-04T15:33:26;11.60;99.90
7502;DHT22;3792;47.740;7.606;2022-11-04T15:35:55;11.50;99.90
7502;DHT22;3792;47.740;7.606;2022-11-04T15:38:24;11.40;99.90
7502;DHT22;3792;47.740;7.606;2022-11-04T15:40:55;11.40;99.90
7502;DHT22;3792;47.740;7.606;2022-11-04T15:43:43;11.20;99.90
7502;DHT22;3792;47.740;7.606;2022-11-04T15:46:17;11.20;99.90
7502;DHT22;3792;47.740;7.606;2022-11-04T15:48:59;11.10;99.90
7502;DHT22;3792;47.740;7.606;2022-11-04T15:51:27;10.90;99.90
7502;DHT22;3792;47.740;7.606;2022-11-04T15:53:58;10.70;99.90
7502;DHT22;3792;47.740;7.606;2022-11-04T15:56:33;10.60;99.90
7502;DHT22;3792;47.740;7.606;2022-11-04T15:59:01;10.70;99.90
7502;DHT22;3792;47.740;7.606;2022-11-04T16:01:44;10.70;99.90
7502;DHT22;3792;47.740;7.606;2022-11-04T16:04:11;10.80;99.90
7502;DHT22;3792;47.740;7.606;2022-11-04T16:06:40;10.80;99.90
7502;DHT22;3792;47.740;7.606;2022-11-04T16:09:20;10.90;99.90
7502;DHT22;3792;47.740;7.606;2022-11-04T16:12:11;10.90;99.90
7502;DHT22;3792;47.740;7.606;2022-11-04T16:14:46;10.80;99.90
7502;DHT22;3792;47.740;7.606;2022-11-04T16:17:13;10.80;99.90
7502;DHT22;3792;47.740;7.606;2022-11-04T16:19:45;10.80;99.90
7502;DHT22;3792;47.740;7.606;2022-11-04T16:22:18;10.80;99.90
7502;DHT22;3792;47.740;7.606;2022-11-04T16:24:48;10.70;99.90
7502;DHT22;3792;47.740;7.606;2022-11-04T16:27:20;10.70;99.90
7502;DHT22;3792;47.740;7.606;2022-11-04T16:30:00;10.60;99.90
7502;DHT22;3792;47.740;7.606;2022-11-04T16:32:28;10.50;99.90
7502;DHT22;3792;47.740;7.606;2022-11-04T16:34:58;10.50;99.90
7502;DHT22;3792;47.740;7.606;2022-11-04T16:37:27;10.40;99.90
7502;DHT22;3792;47.740;7.606;2022-11-04T16:39:55;10.40;99.90
7502;DHT22;3792;47.740;7.606;2022-11-04T16:42:23;10.40;99.90
7502;DHT22;3792;47.740;7.606;2022-11-04T16:44:53;10.30;99.90
7502;DHT22;3792;47.740;7.606;2022-11-04T16:47:23;10.30;99.90
7502;DHT22;3792;47.740;7.606;2022-11-04T16:49:52;10.30;99.90
7502;DHT22;3792;47.740;7.606;2022-11-04T16:52:22;10.30;99.90
7502;DHT22;3792;47.740;7.606;2022-11-04T16:54:51;10.30;99.90
7502;DHT22;3792;47.740;7.606;2022-11-04T16:57:23;10.30;99.90
7502;DHT22;3792;47.740;7.606;2022-11-04T16:59:50;10.30;99.90
7502;DHT22;3792;47.740;7.606;2022-11-04T17:02:19;10.30;99.90
7502;DHT22;3792;47.740;7.606;2022-11-04T17:04:49;10.20;99.90